createdAt,value
2017-09-21T00:00:12.088Z,7.40
2017-09-21T00:02:39.576Z,7.40
2017-09-21T00:05:07.100Z,7.40
2017-09-21T00:07:34.668Z,7.40
2017-09-21T00:10:02.924Z,7.40
2017-09-21T00:12:30.415Z,7.40
2017-09-21T00:14:58.699Z,7.40
2017-09-21T00:17:26.221Z,7.40
2017-09-21T00:19:53.739Z,7.40
2017-09-21T00:22:21.228Z,7.40
2017-09-21T00:24:48.735Z,7.40
2017-09-21T00:27:16.225Z,7.40
2017-09-21T00:29:43.712Z,7.40
2017-09-21T00:32:11.222Z,7.40
2017-09-21T00:34:38.713Z,7.40
2017-09-21T00:37:06.216Z,7.40
2017-09-21T00:39:33.724Z,7.30
2017-09-21T00:42:01.209Z,7.30
2017-09-21T00:44:29.467Z,7.30
2017-09-21T00:46:56.969Z,7.30
2017-09-21T00:49:24.455Z,7.30
2017-09-21T00:51:51.941Z,7.30
2017-09-21T00:54:20.215Z,7.20
2017-09-21T00:56:47.707Z,7.20
2017-09-21T00:59:15.194Z,7.20
2017-09-21T02:59:42.881Z,6.90
2017-09-21T03:02:10.386Z,6.90
2017-09-21T03:04:37.904Z,6.90
2017-09-21T03:07:05.413Z,6.90
2017-09-21T03:09:32.944Z,6.90
2017-09-21T03:12:01.209Z,6.90
2017-09-21T03:14:29.473Z,6.90
2017-09-21T03:16:57.005Z,6.90
2017-09-21T03:19:24.512Z,6.90
2017-09-21T03:21:52.777Z,7.00
2017-09-21T03:24:21.093Z,7.00
2017-09-21T03:26:48.589Z,7.00
2017-09-21T03:29:16.082Z,7.00
2017-09-21T03:31:43.613Z,7.00
2017-09-21T03:34:11.880Z,7.00
2017-09-21T03:36:39.425Z,7.00
2017-09-21T03:39:06.920Z,7.00
2017-09-21T03:41:35.196Z,7.00
2017-09-21T03:44:02.715Z,7.00
2017-09-21T03:46:30.200Z,7.00
2017-09-21T03:48:58.500Z,7.00
2017-09-21T03:51:25.992Z,7.00
2017-09-21T03:53:53.483Z,7.10
2017-09-21T03:56:21.004Z,7.10
2017-09-21T03:58:50.724Z,7.10
2017-09-21T04:01:18.400Z,7.10
2017-09-21T04:03:45.930Z,7.10
2017-09-21T04:06:14.182Z,7.10
2017-09-21T04:08:41.994Z,7.10
2017-09-21T04:11:09.520Z,7.10
2017-09-21T04:13:37.007Z,7.10
2017-09-21T04:16:04.992Z,7.10
2017-09-21T04:18:32.480Z,7.10
2017-09-21T04:20:59.986Z,7.10
2017-09-21T04:23:28.313Z,7.10
2017-09-21T04:25:56.560Z,7.10
2017-09-21T04:28:24.043Z,7.10
2017-09-21T04:30:51.562Z,7.10
2017-09-21T04:33:19.048Z,7.10
2017-09-21T04:35:46.558Z,7.10
2017-09-21T04:38:14.811Z,7.10
2017-09-21T04:40:42.326Z,7.10
2017-09-21T04:43:09.847Z,7.20
2017-09-21T04:45:38.103Z,7.20
2017-09-21T04:48:05.625Z,7.20
2017-09-21T04:50:33.148Z,7.20
2017-09-21T04:53:01.391Z,7.20
2017-09-21T04:55:28.946Z,7.20
2017-09-21T04:57:56.430Z,7.20
2017-09-21T05:00:24.696Z,7.20
2017-09-21T05:02:52.980Z,7.20
2017-09-21T05:05:21.250Z,7.20
2017-09-21T05:07:49.535Z,7.30
2017-09-21T05:10:17.047Z,7.20
2017-09-21T05:12:44.548Z,7.30
2017-09-21T05:15:12.822Z,7.40
2017-09-21T05:17:40.323Z,7.40
2017-09-21T05:20:07.848Z,7.40
2017-09-21T05:22:35.343Z,7.50
2017-09-21T05:25:03.587Z,7.50
2017-09-21T05:27:31.097Z,7.50
2017-09-21T05:29:58.578Z,7.60
2017-09-21T05:32:26.104Z,7.60
2017-09-21T05:34:53.620Z,7.60
2017-09-21T05:37:21.156Z,7.60
2017-09-21T05:39:48.660Z,7.60
2017-09-21T05:42:16.152Z,7.60
2017-09-21T05:44:44.446Z,7.60
2017-09-21T05:47:11.936Z,7.60
2017-09-21T05:49:39.422Z,7.60
2017-09-21T05:52:06.939Z,7.70
2017-09-21T05:54:34.426Z,7.70
2017-09-21T05:57:01.958Z,7.80
2017-09-21T05:59:29.443Z,7.80
2017-09-21T06:01:56.946Z,7.90
2017-09-21T06:04:24.472Z,7.90
2017-09-21T06:06:51.955Z,8.00
2017-09-21T06:09:19.488Z,8.00
2017-09-21T06:11:47.744Z,8.00
2017-09-21T06:14:15.238Z,8.00
2017-09-21T06:16:42.748Z,8.00
2017-09-21T06:19:10.232Z,8.00
2017-09-21T06:21:37.745Z,8.10
2017-09-21T06:24:05.285Z,8.10
2017-09-21T06:26:32.768Z,8.10
2017-09-21T06:29:00.264Z,8.10
2017-09-21T06:31:28.615Z,8.10
2017-09-21T06:33:56.111Z,8.10
2017-09-21T06:36:23.644Z,8.10
2017-09-21T06:38:51.156Z,8.10
2017-09-21T06:41:18.649Z,8.20
2017-09-21T06:43:46.163Z,8.20
2017-09-21T06:46:13.651Z,8.20
2017-09-21T06:48:41.935Z,8.30
2017-09-21T06:51:09.414Z,8.20
2017-09-21T06:53:37.659Z,8.30
2017-09-21T06:56:05.188Z,8.30
2017-09-21T06:58:32.671Z,8.40
2017-09-21T07:01:00.168Z,8.40
2017-09-21T07:03:27.692Z,8.50
2017-09-21T07:05:55.201Z,8.50
2017-09-21T07:08:22.732Z,8.60
2017-09-21T07:10:51.014Z,8.70
2017-09-21T07:13:19.263Z,8.70
2017-09-21T07:15:46.780Z,8.70
2017-09-21T07:18:14.272Z,8.80
2017-09-21T07:20:41.784Z,8.90
2017-09-21T07:23:09.272Z,9.00
2017-09-21T07:25:36.786Z,9.00
2017-09-21T07:28:04.336Z,9.10
2017-09-21T07:30:31.818Z,9.20
2017-09-21T07:32:59.317Z,9.20
2017-09-21T07:35:26.863Z,9.30
2017-09-21T07:37:54.353Z,9.40
2017-09-21T07:40:22.635Z,9.50
2017-09-21T07:42:50.137Z,9.50
2017-09-21T07:45:17.671Z,9.60
2017-09-21T07:47:45.193Z,9.70
2017-09-21T07:50:13.461Z,9.90
2017-09-21T07:52:41.747Z,10.00
2017-09-21T07:55:09.999Z,10.00
2017-09-21T07:57:37.492Z,10.10
2017-09-21T08:00:05.010Z,10.20
2017-09-21T08:02:32.517Z,10.20
2017-09-21T08:05:00.037Z,10.30
2017-09-21T08:07:27.544Z,10.30
2017-09-21T08:09:55.067Z,10.40
2017-09-21T08:12:23.376Z,10.50
2017-09-21T08:14:50.890Z,10.50
2017-09-21T08:17:19.148Z,10.70
2017-09-21T08:19:46.663Z,10.70
2017-09-21T08:22:14.147Z,10.70
2017-09-21T08:24:41.664Z,10.80
2017-09-21T08:27:09.165Z,10.90
2017-09-21T08:29:36.697Z,10.90
2017-09-21T08:32:04.198Z,11.00
2017-09-21T08:34:31.687Z,11.10
2017-09-21T08:36:59.214Z,11.10
2017-09-21T08:39:26.750Z,11.20
2017-09-21T08:41:54.239Z,11.30
2017-09-21T08:44:22.501Z,11.40
2017-09-21T08:46:50.809Z,11.50
2017-09-21T08:49:18.315Z,11.50
2017-09-21T08:51:45.809Z,11.60
2017-09-21T08:54:14.118Z,11.70
2017-09-21T08:56:41.599Z,11.70
2017-09-21T08:59:09.097Z,11.70
2017-09-21T09:01:37.389Z,11.80
2017-09-21T09:04:04.879Z,11.80
2017-09-21T09:06:32.419Z,11.90
2017-09-21T09:08:59.954Z,12.00
2017-09-21T09:11:27.444Z,12.00
2017-09-21T09:13:54.935Z,12.10
2017-09-21T09:16:22.469Z,12.10
2017-09-21T09:18:49.959Z,12.20
2017-09-21T09:21:18.220Z,12.30
2017-09-21T09:23:45.770Z,12.30
2017-09-21T09:26:13.263Z,12.30
2017-09-21T09:28:40.746Z,12.40
2017-09-21T09:31:08.269Z,12.40
2017-09-21T09:33:36.534Z,12.60
2017-09-21T09:36:04.798Z,12.60
2017-09-21T09:38:32.336Z,12.60
2017-09-21T09:40:59.819Z,12.70
2017-09-21T09:43:28.092Z,12.70
2017-09-21T09:45:56.375Z,12.70
2017-09-21T09:48:24.632Z,12.80
2017-09-21T09:50:52.161Z,12.80
2017-09-21T09:53:19.655Z,12.90
2017-09-21T09:55:47.146Z,13.00
2017-09-21T09:58:14.681Z,13.00
2017-09-21T10:00:42.949Z,13.10
2017-09-21T10:03:11.212Z,13.20
2017-09-21T10:05:38.734Z,13.20
2017-09-21T10:08:06.225Z,13.20
2017-09-21T10:10:33.722Z,13.30
2017-09-21T10:13:01.260Z,13.30
2017-09-21T10:15:29.541Z,13.40
2017-09-21T10:17:57.795Z,13.50
2017-09-21T10:20:26.107Z,13.50
2017-09-21T10:22:53.661Z,13.50
2017-09-21T10:25:21.152Z,13.60
2017-09-21T10:27:48.689Z,13.70
2017-09-21T10:30:16.180Z,13.70
2017-09-21T10:32:43.667Z,13.80
2017-09-21T10:35:11.957Z,13.90
2017-09-21T10:37:39.476Z,13.90
2017-09-21T10:40:06.960Z,13.90
2017-09-21T10:42:35.239Z,14.00
2017-09-21T10:45:02.772Z,14.00
2017-09-21T10:47:30.285Z,14.10
2017-09-21T10:49:57.783Z,14.20
2017-09-21T10:52:25.303Z,14.20
2017-09-21T10:54:52.838Z,14.20
2017-09-21T10:57:20.326Z,14.30
2017-09-21T10:59:48.588Z,14.40
2017-09-21T11:02:16.544Z,14.40
2017-09-21T11:04:44.044Z,14.40
2017-09-21T11:07:11.576Z,14.50
2017-09-21T11:09:39.059Z,14.60
2017-09-21T11:12:06.579Z,14.60
2017-09-21T11:14:34.100Z,14.60
2017-09-21T11:17:02.377Z,14.70
2017-09-21T11:19:29.887Z,14.70
2017-09-21T11:21:57.377Z,14.80
2017-09-21T11:24:25.667Z,14.90
2017-09-21T11:26:53.957Z,14.90
2017-09-21T11:29:21.508Z,14.90
2017-09-21T11:31:48.995Z,15.00
2017-09-21T11:34:16.475Z,15.00
2017-09-21T11:36:43.997Z,15.10
2017-09-21T11:39:11.531Z,15.20
2017-09-21T11:41:39.033Z,15.30
2017-09-21T11:44:06.555Z,15.30
2017-09-21T11:46:34.049Z,15.40
2017-09-21T11:49:01.558Z,15.40
2017-09-21T11:51:29.089Z,15.50
2017-09-21T11:53:56.583Z,15.50
2017-09-21T11:56:24.105Z,15.60
2017-09-21T11:58:52.359Z,15.70
2017-09-21T12:01:19.875Z,15.60
2017-09-21T12:03:47.394Z,15.70
2017-09-21T12:06:15.664Z,15.70
2017-09-21T12:08:43.161Z,15.70
2017-09-21T12:11:10.656Z,15.70
2017-09-21T12:13:38.197Z,15.80
2017-09-21T12:16:05.712Z,15.80
2017-09-21T12:18:33.967Z,15.90
2017-09-21T12:21:01.479Z,15.80
2017-09-21T12:23:28.982Z,15.90
2017-09-21T12:25:56.508Z,15.90
2017-09-21T12:28:24.035Z,16.00
2017-09-21T12:30:51.524Z,16.00
2017-09-21T12:33:19.049Z,16.00
2017-09-21T12:35:46.533Z,16.10
2017-09-21T12:38:14.028Z,16.10
2017-09-21T12:40:42.329Z,16.20
2017-09-21T12:43:09.825Z,16.20
2017-09-21T12:45:37.350Z,16.30
2017-09-21T12:48:04.849Z,16.30
2017-09-21T12:50:32.411Z,16.30
2017-09-21T12:52:59.896Z,16.40
2017-09-21T12:55:28.161Z,16.40
2017-09-21T12:57:56.470Z,16.40
2017-09-21T13:00:23.960Z,16.40
2017-09-21T13:02:51.448Z,16.50
2017-09-21T13:05:18.969Z,16.50
2017-09-21T13:07:46.490Z,16.60
2017-09-21T13:10:13.980Z,16.60
2017-09-21T13:12:41.517Z,16.60
2017-09-21T13:15:09.011Z,16.60
2017-09-21T13:17:36.507Z,16.60
2017-09-21T13:20:04.038Z,16.60
2017-09-21T13:22:31.527Z,16.60
2017-09-21T13:24:59.059Z,16.70
2017-09-21T13:27:26.584Z,16.80
2017-09-21T13:29:54.072Z,16.80
2017-09-21T13:32:22.329Z,17.00
2017-09-21T13:34:49.854Z,17.00
2017-09-21T13:37:17.373Z,17.10
2017-09-21T13:39:45.625Z,17.30
2017-09-21T13:42:13.143Z,17.30
2017-09-21T13:44:40.655Z,17.40
2017-09-21T13:47:08.911Z,17.60
2017-09-21T13:49:36.437Z,17.60
2017-09-21T13:52:03.932Z,17.70
2017-09-21T13:54:31.418Z,17.90
2017-09-21T13:56:58.942Z,18.00
2017-09-21T13:59:26.430Z,18.20
2017-09-21T14:01:53.957Z,18.50
2017-09-21T14:04:21.467Z,19.10
2017-09-21T14:06:48.983Z,19.80
2017-09-21T14:09:17.270Z,20.70
2017-09-21T14:11:45.619Z,20.70
2017-09-21T14:14:13.135Z,20.90
2017-09-21T14:16:40.655Z,21.10
2017-09-21T14:19:08.917Z,21.40
2017-09-21T14:21:36.409Z,21.30
2017-09-21T14:24:03.922Z,21.40
2017-09-21T14:26:31.445Z,21.30
2017-09-21T14:28:58.933Z,21.30
2017-09-21T14:31:26.432Z,21.30
2017-09-21T14:33:53.961Z,21.40
2017-09-21T14:36:22.242Z,21.50
2017-09-21T14:38:50.528Z,21.40
2017-09-21T14:41:18.816Z,21.40
2017-09-21T14:43:46.300Z,21.30
2017-09-21T14:46:13.839Z,21.30
2017-09-21T14:48:41.326Z,21.30
2017-09-21T14:51:08.806Z,21.20
2017-09-21T14:53:36.329Z,21.20
2017-09-21T14:56:03.831Z,21.20
2017-09-21T14:58:32.120Z,21.20
2017-09-21T15:01:00.371Z,21.30
2017-09-21T15:03:27.853Z,21.30
2017-09-21T15:05:55.371Z,21.30
2017-09-21T15:08:22.864Z,21.40
2017-09-21T15:10:50.382Z,21.40
2017-09-21T15:13:17.918Z,21.40
2017-09-21T15:15:45.411Z,21.40
2017-09-21T15:18:14.111Z,21.30
2017-09-21T15:20:42.404Z,21.10
2017-09-21T15:23:09.901Z,21.10
2017-09-21T15:25:38.160Z,20.80
2017-09-21T15:28:05.700Z,20.80
2017-09-21T15:30:33.194Z,20.60
2017-09-21T15:33:00.723Z,20.60
2017-09-21T15:35:28.207Z,20.50
2017-09-21T15:37:55.699Z,20.50
2017-09-21T15:40:23.983Z,20.50
2017-09-21T15:42:51.471Z,20.50
2017-09-21T15:45:18.993Z,20.40
2017-09-21T15:47:47.251Z,20.10
2017-09-21T15:50:15.527Z,20.00
2017-09-21T15:52:43.849Z,19.90
2017-09-21T15:55:11.325Z,19.90
2017-09-21T15:57:38.852Z,19.70
2017-09-21T16:00:06.342Z,19.70
2017-09-21T16:02:33.855Z,19.60
2017-09-21T16:05:01.339Z,19.50
2017-09-21T16:07:28.852Z,19.30
2017-09-21T16:09:57.116Z,18.90
2017-09-21T16:12:25.413Z,18.70
2017-09-21T16:14:53.667Z,18.40
2017-09-21T16:17:21.915Z,18.20
2017-09-21T16:19:49.445Z,18.20
2017-09-21T16:22:16.943Z,18.00
2017-09-21T16:24:44.445Z,17.80
2017-09-21T16:27:15.213Z,17.70
2017-09-21T16:29:42.705Z,17.50
2017-09-21T16:32:10.985Z,17.20
2017-09-21T16:34:39.248Z,17.00
2017-09-21T16:37:06.773Z,17.00
2017-09-21T16:39:34.266Z,16.90
2017-09-21T16:42:02.568Z,16.60
2017-09-21T16:44:30.055Z,16.60
2017-09-21T16:46:57.535Z,16.50
2017-09-21T16:49:25.098Z,16.40
2017-09-21T16:51:52.588Z,16.20
2017-09-21T16:54:20.106Z,16.10
2017-09-21T16:56:47.679Z,15.90
2017-09-21T16:59:15.164Z,15.80
2017-09-21T17:01:42.754Z,15.60
2017-09-21T17:04:10.255Z,15.40
2017-09-21T17:06:38.543Z,15.10
2017-09-21T17:09:06.796Z,15.00
2017-09-21T17:11:34.316Z,14.90
2017-09-21T17:14:01.809Z,14.80
2017-09-21T17:16:29.336Z,14.70
2017-09-21T17:18:56.851Z,14.60
2017-09-21T17:21:24.341Z,14.50
2017-09-21T17:23:51.864Z,14.40
2017-09-21T17:26:19.398Z,14.30
2017-09-21T17:28:46.911Z,14.20
2017-09-21T17:31:14.416Z,14.10
2017-09-21T17:33:42.706Z,13.80
2017-09-21T17:36:10.965Z,13.70
2017-09-21T17:38:39.237Z,13.60
2017-09-21T17:41:06.749Z,13.60
2017-09-21T17:43:34.231Z,13.50
2017-09-21T17:46:01.757Z,13.40
2017-09-21T17:48:29.280Z,13.40
2017-09-21T17:50:57.549Z,13.20
2017-09-21T17:53:25.839Z,13.10
2017-09-21T17:55:53.332Z,13.10
2017-09-21T17:58:20.874Z,13.00
2017-09-21T18:00:48.363Z,12.90
2017-09-21T18:03:15.855Z,12.90
2017-09-21T18:05:44.152Z,12.70
2017-09-21T18:08:11.645Z,12.70
2017-09-21T18:10:39.943Z,12.60
2017-09-21T18:13:07.453Z,12.60
2017-09-21T18:15:34.956Z,12.50
2017-09-21T18:18:02.479Z,12.50
2017-09-21T18:20:29.963Z,12.40
2017-09-21T18:22:57.448Z,12.30
2017-09-21T18:25:25.763Z,12.20
2017-09-21T18:27:53.340Z,12.20
2017-09-21T18:30:20.841Z,12.10
2017-09-21T18:32:48.392Z,12.10
2017-09-21T18:35:16.674Z,12.00
2017-09-21T18:37:44.249Z,12.00
2017-09-21T18:40:11.778Z,11.90
2017-09-21T18:42:40.291Z,11.90
2017-09-21T18:45:07.822Z,11.90
2017-09-21T18:47:36.369Z,11.80
2017-09-21T18:50:03.944Z,11.70
2017-09-21T18:52:31.438Z,11.70
2017-09-21T18:54:58.953Z,11.70
2017-09-21T18:57:27.249Z,11.60
2017-09-21T18:59:55.554Z,11.50
2017-09-21T19:02:23.034Z,11.50
2017-09-21T19:04:50.599Z,11.50
2017-09-21T19:07:18.154Z,11.40
2017-09-21T19:09:45.641Z,11.40
2017-09-21T19:12:13.123Z,11.40
2017-09-21T19:14:40.650Z,11.30
2017-09-21T19:17:09.095Z,11.30
2017-09-21T19:19:36.719Z,11.30
2017-09-21T19:22:05.011Z,11.20
2017-09-21T19:24:32.584Z,11.20
2017-09-21T19:27:00.201Z,11.20
2017-09-21T19:29:28.839Z,11.10
2017-09-21T19:31:57.123Z,11.10
2017-09-21T19:34:25.019Z,11.00
2017-09-21T19:36:53.334Z,11.00
2017-09-21T19:39:20.878Z,11.00
2017-09-21T19:41:48.725Z,11.00
2017-09-21T19:44:16.283Z,11.00
2017-09-21T19:46:43.782Z,10.90
2017-09-21T19:49:11.295Z,11.00
2017-09-21T19:51:39.594Z,10.90
2017-09-21T19:54:07.079Z,10.90
2017-09-21T19:56:34.576Z,10.90
2017-09-21T19:59:02.883Z,11.00
2017-09-21T20:01:30.423Z,10.90
2017-09-21T20:03:58.013Z,11.00
2017-09-21T20:06:25.529Z,11.00
2017-09-21T20:08:53.804Z,11.00
2017-09-21T20:11:22.109Z,11.00
2017-09-21T20:13:49.757Z,11.00
2017-09-21T20:16:17.355Z,11.00
2017-09-21T20:18:44.877Z,11.00
2017-09-21T20:21:12.377Z,11.00
2017-09-21T20:23:39.895Z,11.00
2017-09-21T20:26:07.383Z,11.00
2017-09-21T20:28:34.931Z,11.10
2017-09-21T20:31:02.424Z,11.10
2017-09-21T20:33:29.967Z,11.10
2017-09-21T20:35:58.234Z,11.20
2017-09-21T20:38:25.723Z,11.20
2017-09-21T20:40:55.531Z,11.30
2017-09-21T20:43:23.300Z,11.20
2017-09-21T20:45:51.017Z,11.30
2017-09-21T20:48:18.723Z,11.40
2017-09-21T20:50:46.441Z,11.40
2017-09-21T20:53:13.951Z,11.50
2017-09-21T20:55:41.459Z,11.50
2017-09-21T20:58:08.993Z,11.60
2017-09-21T21:00:36.480Z,11.60
2017-09-21T21:03:03.963Z,11.60
2017-09-21T21:05:32.261Z,11.70
2017-09-21T21:07:59.807Z,11.70
2017-09-21T21:10:27.300Z,11.70
2017-09-21T21:12:54.793Z,11.70
2017-09-21T21:15:22.305Z,11.70
2017-09-21T21:17:49.809Z,11.60
2017-09-21T21:20:17.343Z,11.60
2017-09-21T21:22:44.868Z,11.60
2017-09-21T21:25:12.360Z,11.60
2017-09-21T21:27:39.877Z,11.60
2017-09-21T21:30:07.417Z,11.60
2017-09-21T21:32:35.750Z,11.60
2017-09-21T21:35:03.476Z,11.50
2017-09-21T21:37:31.222Z,11.60
2017-09-21T21:39:58.902Z,11.50
2017-09-21T21:42:26.624Z,11.50
2017-09-21T21:44:54.427Z,11.50
2017-09-21T21:47:22.207Z,11.50
2017-09-21T21:49:49.907Z,11.60
2017-09-21T21:52:18.420Z,11.60
2017-09-21T21:54:46.077Z,11.60
2017-09-21T21:57:13.769Z,11.60
2017-09-21T21:59:41.467Z,11.60
2017-09-21T22:02:09.270Z,11.60
2017-09-21T22:04:37.018Z,11.50
2017-09-21T22:07:04.723Z,11.50
2017-09-21T22:09:32.425Z,11.50
2017-09-21T22:12:00.239Z,11.40
2017-09-21T22:14:27.906Z,11.40
2017-09-21T22:16:55.630Z,11.30
2017-09-21T22:19:23.156Z,11.30
2017-09-21T22:21:50.646Z,11.30
2017-09-21T22:24:18.163Z,11.20
2017-09-21T22:26:45.687Z,11.20
2017-09-21T22:29:13.176Z,11.10
2017-09-21T22:31:40.716Z,11.00
2017-09-21T22:34:08.204Z,11.00
2017-09-21T22:36:35.700Z,10.90
2017-09-21T22:39:03.235Z,10.90
2017-09-21T22:41:31.493Z,10.80
2017-09-21T22:43:58.991Z,10.70
2017-09-21T22:46:26.492Z,10.70
2017-09-21T22:48:54.015Z,10.70
2017-09-21T22:51:21.508Z,10.60
2017-09-21T22:53:49.002Z,10.60
2017-09-21T22:56:17.296Z,10.60
2017-09-21T22:58:44.796Z,10.60
2017-09-21T23:01:12.325Z,10.60
2017-09-21T23:03:39.812Z,10.60
2017-09-21T23:06:07.359Z,10.60
2017-09-21T23:08:34.869Z,10.60
2017-09-21T23:11:02.394Z,10.60
2017-09-21T23:13:29.883Z,10.60
2017-09-21T23:15:57.383Z,10.60
2017-09-21T23:18:24.888Z,10.70
2017-09-21T23:20:52.376Z,10.70
2017-09-21T23:23:19.994Z,10.70
2017-09-21T23:25:48.257Z,10.80
2017-09-21T23:28:16.527Z,10.80
2017-09-21T23:30:44.034Z,10.80
2017-09-21T23:33:11.518Z,10.80
2017-09-21T23:35:39.017Z,10.80
2017-09-21T23:38:07.281Z,10.80
2017-09-21T23:40:35.556Z,10.80
2017-09-21T23:43:03.825Z,10.80
2017-09-21T23:45:32.116Z,10.80
2017-09-21T23:48:00.388Z,10.80
2017-09-21T23:50:28.649Z,10.80
2017-09-21T23:52:57.737Z,10.80
2017-09-21T23:55:25.235Z,10.80
2017-09-21T23:57:52.730Z,10.80
